createdAt,value
2019-02-14T00:00:13.937Z,-1.10
2019-02-14T00:02:42.529Z,-0.70
2019-02-14T00:05:16.408Z,-0.60
2019-02-14T00:07:41.734Z,-0.60
2019-02-14T00:10:10.872Z,-0.60
2019-02-14T00:12:39.445Z,-0.70
2019-02-14T00:15:12.442Z,-0.70
2019-02-14T00:17:41.074Z,-0.60
2019-02-14T00:20:10.513Z,-0.50
2019-02-14T00:22:39.416Z,-0.40
2019-02-14T00:25:08.358Z,-0.50
2019-02-14T00:27:36.945Z,-0.50
2019-02-14T00:30:08.058Z,-0.60
2019-02-14T00:32:36.637Z,-0.60
2019-02-14T00:35:06.441Z,-0.60
2019-02-14T00:37:35.038Z,-0.60
2019-02-14T00:40:05.157Z,-0.60
2019-02-14T00:42:33.749Z,-0.60
2019-02-14T00:45:02.393Z,-0.60
2019-02-14T00:47:31.021Z,-0.70
2019-02-14T00:49:59.609Z,-0.60
2019-02-14T00:52:28.179Z,-0.70
2019-02-14T00:54:56.760Z,-0.80
2019-02-14T00:57:25.325Z,-0.80
2019-02-14T00:59:53.909Z,-0.80
2019-02-14T01:02:22.614Z,-0.80
2019-02-14T01:04:51.244Z,-0.70
2019-02-14T01:07:19.901Z,-0.70
2019-02-14T01:09:48.463Z,-0.70
2019-02-14T01:12:17.194Z,-0.80
2019-02-14T01:14:45.826Z,-0.90
2019-02-14T01:17:14.384Z,-1.10
2019-02-14T01:19:42.978Z,-1.20
2019-02-14T01:22:11.540Z,-1.20
2019-02-14T01:24:40.121Z,-1.30
2019-02-14T01:27:08.825Z,-1.30
2019-02-14T01:29:37.387Z,-1.40
2019-02-14T01:32:06.113Z,-1.30
2019-02-14T01:34:34.749Z,-1.20
2019-02-14T01:37:03.334Z,-1.10
2019-02-14T01:39:31.978Z,-1.00
2019-02-14T01:42:00.618Z,-1.10
2019-02-14T01:44:29.245Z,-1.10
2019-02-14T01:46:57.846Z,-1.20
2019-02-14T01:49:27.179Z,-1.20
2019-02-14T01:51:55.741Z,-1.20
2019-02-14T01:54:25.378Z,-1.10
2019-02-14T01:56:54.004Z,-1.10
2019-02-14T01:59:22.620Z,-1.00
2019-02-14T02:01:51.198Z,-1.00
2019-02-14T02:04:19.758Z,-1.00
2019-02-14T02:06:48.417Z,-1.20
2019-02-14T02:09:16.994Z,-1.20
2019-02-14T02:11:45.705Z,-1.30
2019-02-14T02:14:14.272Z,-1.40
2019-02-14T02:16:42.830Z,-1.50
2019-02-14T02:19:11.413Z,-1.30
2019-02-14T02:21:40.041Z,-1.30
2019-02-14T02:24:08.766Z,-1.50
2019-02-14T02:26:37.329Z,-1.50
2019-02-14T02:29:05.890Z,-1.60
2019-02-14T02:31:34.622Z,-1.60
2019-02-14T02:34:03.269Z,-1.60
2019-02-14T02:36:31.993Z,-1.70
2019-02-14T02:39:00.566Z,-1.70
2019-02-14T02:41:29.190Z,-1.80
2019-02-14T02:43:57.931Z,-1.80
2019-02-14T02:46:26.489Z,-1.90
2019-02-14T02:48:55.129Z,-1.80
2019-02-14T02:51:23.650Z,-1.60
2019-02-14T02:53:52.248Z,-1.50
2019-02-14T02:56:20.810Z,-1.50
2019-02-14T02:58:49.403Z,-1.40
2019-02-14T03:01:17.967Z,-1.40
2019-02-14T03:03:46.529Z,-1.20
2019-02-14T03:06:15.128Z,-1.30
2019-02-14T03:08:43.677Z,-1.50
2019-02-14T03:11:12.346Z,-1.70
2019-02-14T03:13:40.910Z,-1.70
2019-02-14T03:16:09.543Z,-1.60
2019-02-14T03:18:38.137Z,-1.50
2019-02-14T03:21:06.716Z,-1.50
2019-02-14T03:23:35.307Z,-1.30
2019-02-14T03:26:03.938Z,-1.30
2019-02-14T03:28:32.533Z,-1.40
2019-02-14T03:31:01.166Z,-1.40
2019-02-14T03:33:30.293Z,-1.50
2019-02-14T03:35:58.877Z,-1.50
2019-02-14T03:38:27.438Z,-1.60
2019-02-14T03:40:56.102Z,-1.70
2019-02-14T03:43:24.734Z,-1.90
2019-02-14T03:45:53.398Z,-1.90
2019-02-14T03:48:22.034Z,-1.70
2019-02-14T03:51:10.043Z,-1.60
2019-02-14T03:53:38.775Z,-1.60
2019-02-14T03:56:07.842Z,-1.80
2019-02-14T03:58:36.409Z,-1.90
2019-02-14T04:01:05.111Z,-1.90
2019-02-14T04:03:33.698Z,-2.00
2019-02-14T04:06:02.329Z,-2.00
2019-02-14T04:08:31.062Z,-1.90
2019-02-14T04:10:59.689Z,-1.90
2019-02-14T04:13:28.353Z,-1.90
2019-02-14T04:15:56.917Z,-1.90
2019-02-14T04:18:26.029Z,-1.90
2019-02-14T04:20:54.666Z,-2.00
2019-02-14T04:23:23.297Z,-2.10
2019-02-14T04:25:51.892Z,-2.10
2019-02-14T04:28:20.450Z,-2.20
2019-02-14T04:30:49.116Z,-2.10
2019-02-14T04:33:17.853Z,-2.00
2019-02-14T04:35:46.418Z,-1.90
2019-02-14T04:38:15.005Z,-1.80
2019-02-14T04:40:43.642Z,-1.80
2019-02-14T04:43:12.238Z,-1.80
2019-02-14T04:45:40.808Z,-1.80
2019-02-14T04:48:09.397Z,-2.00
2019-02-14T04:50:37.966Z,-2.00
2019-02-14T04:53:06.636Z,-2.20
2019-02-14T04:55:35.333Z,-2.20
2019-02-14T04:58:04.090Z,-2.20
2019-02-14T05:00:32.753Z,-2.10
2019-02-14T05:03:01.319Z,-2.00
2019-02-14T05:05:29.986Z,-2.00
2019-02-14T05:07:58.562Z,-2.10
2019-02-14T05:10:27.157Z,-2.20
2019-02-14T05:12:55.717Z,-2.30
2019-02-14T05:15:24.449Z,-2.40
2019-02-14T05:17:53.017Z,-2.40
2019-02-14T05:20:21.578Z,-2.50
2019-02-14T05:22:50.169Z,-2.40
2019-02-14T05:25:18.742Z,-2.40
2019-02-14T05:27:47.337Z,-2.40
2019-02-14T05:30:17.842Z,-2.50
2019-02-14T05:32:46.510Z,-2.40
2019-02-14T05:35:15.146Z,-2.40
2019-02-14T05:37:43.705Z,-2.50
2019-02-14T05:40:12.531Z,-2.50
2019-02-14T05:42:41.166Z,-2.50
2019-02-14T05:45:14.147Z,-2.50
2019-02-14T05:47:42.778Z,-2.50
2019-02-14T05:50:15.549Z,-2.60
2019-02-14T05:52:44.141Z,-2.60
2019-02-14T05:55:13.142Z,-2.30
2019-02-14T05:57:41.878Z,-2.20
2019-02-14T06:00:13.177Z,-2.40
2019-02-14T06:02:41.806Z,-2.50
2019-02-14T06:05:10.550Z,-2.60
2019-02-14T06:07:39.116Z,-2.60
2019-02-14T06:10:11.842Z,-2.40
2019-02-14T06:12:40.469Z,-2.50
2019-02-14T06:15:13.763Z,-2.50
2019-02-14T06:17:42.329Z,-2.60
2019-02-14T06:20:11.979Z,-2.60
2019-02-14T06:22:40.611Z,-2.70
2019-02-14T06:25:11.498Z,-2.70
2019-02-14T06:27:40.089Z,-2.50
2019-02-14T06:30:11.660Z,-2.50
2019-02-14T06:32:40.337Z,-2.50
2019-02-14T06:35:10.472Z,-2.40
2019-02-14T06:37:39.166Z,-2.40
2019-02-14T06:40:12.515Z,-2.30
2019-02-14T06:42:41.113Z,-2.40
2019-02-14T06:45:15.383Z,-2.60
2019-02-14T06:47:44.005Z,-2.70
2019-02-14T06:50:12.670Z,-2.80
2019-02-14T06:52:41.296Z,-2.70
2019-02-14T06:55:10.539Z,-2.80
2019-02-14T06:57:39.114Z,-2.80
2019-02-14T07:00:17.711Z,-2.50
2019-02-14T07:02:46.508Z,-2.30
2019-02-14T07:05:15.115Z,-2.10
2019-02-14T07:07:43.726Z,-2.10
2019-02-14T07:10:12.707Z,-2.10
2019-02-14T07:13:00.715Z,-2.10
2019-02-14T07:15:29.353Z,-2.10
2019-02-14T07:17:58.025Z,-2.30
2019-02-14T07:20:26.600Z,-2.10
2019-02-14T07:22:55.268Z,-2.00
2019-02-14T07:25:23.832Z,-2.00
2019-02-14T07:27:52.390Z,-2.00
2019-02-14T07:30:26.618Z,-2.00
2019-02-14T07:32:55.183Z,-1.90
2019-02-14T07:35:24.119Z,-1.80
2019-02-14T07:37:52.686Z,-1.60
2019-02-14T07:40:21.290Z,-1.50
2019-02-14T07:42:49.850Z,-1.20
2019-02-14T07:45:18.827Z,-1.20
2019-02-14T07:47:47.557Z,-1.20
2019-02-14T07:50:16.274Z,-1.20
2019-02-14T07:52:45.003Z,-1.20
2019-02-14T07:55:14.410Z,-1.00
2019-02-14T07:57:42.992Z,-0.90
2019-02-14T08:00:20.513Z,-0.70
2019-02-14T08:02:49.150Z,-0.50
2019-02-14T08:05:17.823Z,-0.40
2019-02-14T08:07:46.466Z,-0.30
2019-02-14T08:10:16.610Z,0.00
2019-02-14T08:12:45.228Z,0.20
2019-02-14T08:15:14.756Z,0.40
2019-02-14T08:17:43.459Z,0.60
2019-02-14T08:20:17.289Z,0.70
2019-02-14T08:22:45.887Z,1.00
2019-02-14T08:25:14.573Z,1.50
2019-02-14T08:27:43.234Z,2.30
2019-02-14T08:30:16.832Z,3.10
2019-02-14T08:32:45.446Z,3.60
2019-02-14T08:35:14.102Z,3.80
2019-02-14T08:37:45.481Z,3.90
2019-02-14T08:40:22.525Z,4.20
2019-02-14T08:42:51.102Z,4.50
2019-02-14T08:45:19.989Z,4.60
2019-02-14T08:47:48.625Z,4.50
2019-02-14T08:50:17.261Z,4.60
2019-02-14T08:52:45.847Z,4.40
2019-02-14T08:55:14.481Z,4.90
2019-02-14T08:57:43.278Z,5.10
2019-02-14T09:00:16.156Z,5.50
2019-02-14T09:02:44.805Z,6.70
2019-02-14T09:05:13.603Z,7.30
2019-02-14T09:07:42.237Z,7.60
2019-02-14T09:10:15.672Z,7.80
2019-02-14T09:12:44.316Z,8.20
2019-02-14T09:15:14.530Z,8.90
2019-02-14T09:17:43.095Z,8.90
2019-02-14T09:20:14.381Z,9.40
2019-02-14T09:22:43.017Z,9.60
2019-02-14T09:25:11.724Z,10.10
2019-02-14T09:27:40.310Z,9.40
2019-02-14T09:30:11.197Z,9.70
2019-02-14T09:32:39.858Z,10.00
2019-02-14T09:35:09.763Z,10.20
2019-02-14T09:37:38.518Z,11.30
2019-02-14T09:40:10.181Z,12.50
2019-02-14T09:42:38.826Z,12.50
2019-02-14T09:45:10.173Z,12.60
2019-02-14T09:47:38.798Z,13.20
2019-02-14T09:50:10.598Z,13.50
2019-02-14T09:52:39.633Z,13.30
2019-02-14T09:55:10.936Z,13.40
2019-02-14T09:57:39.690Z,13.20
2019-02-14T10:00:11.153Z,13.90
2019-02-14T10:02:39.853Z,13.80
2019-02-14T10:05:09.529Z,14.10
2019-02-14T10:07:38.190Z,15.10
2019-02-14T10:10:10.154Z,15.50
2019-02-14T10:12:38.877Z,15.80
2019-02-14T10:15:09.083Z,15.80
2019-02-14T10:17:37.646Z,16.00
2019-02-14T10:20:15.229Z,15.50
2019-02-14T10:22:43.793Z,16.40
2019-02-14T10:25:13.328Z,17.30
2019-02-14T10:27:42.134Z,17.80
2019-02-14T10:30:19.245Z,16.60
2019-02-14T10:32:47.893Z,16.60
2019-02-14T10:35:16.446Z,17.00
2019-02-14T10:37:45.279Z,16.80
2019-02-14T10:40:15.469Z,15.70
2019-02-14T10:42:44.305Z,14.90
2019-02-14T10:45:23.542Z,15.60
2019-02-14T10:47:52.612Z,16.50
2019-02-14T10:50:21.243Z,15.40
2019-02-14T10:52:49.867Z,14.90
2019-02-14T10:55:18.467Z,15.80
2019-02-14T10:57:47.032Z,16.20
2019-02-14T11:00:23.597Z,16.90
2019-02-14T11:02:52.434Z,18.10
2019-02-14T11:05:21.377Z,17.80
2019-02-14T11:07:50.081Z,16.50
2019-02-14T11:10:18.861Z,16.50
2019-02-14T11:12:47.526Z,16.40
2019-02-14T11:15:20.971Z,16.40
2019-02-14T11:17:49.806Z,16.20
2019-02-14T11:20:18.523Z,15.90
2019-02-14T11:22:48.846Z,15.80
2019-02-14T11:25:28.862Z,15.90
2019-02-14T11:27:57.419Z,15.80
2019-02-14T11:30:26.307Z,16.00
2019-02-14T11:32:54.865Z,16.90
2019-02-14T11:35:23.495Z,17.70
2019-02-14T11:37:52.231Z,18.90
2019-02-14T11:40:20.792Z,19.00
2019-02-14T11:42:49.465Z,19.50
2019-02-14T11:45:23.116Z,19.70
2019-02-14T11:47:51.673Z,21.80
2019-02-14T11:50:20.337Z,21.60
2019-02-14T11:52:48.965Z,21.40
2019-02-14T11:55:17.625Z,21.30
2019-02-14T11:57:46.330Z,21.20
2019-02-14T12:00:27.882Z,20.20
2019-02-14T12:02:56.550Z,18.70
2019-02-14T12:05:25.346Z,17.10
2019-02-14T12:07:53.933Z,17.50
2019-02-14T12:10:22.637Z,18.40
2019-02-14T12:12:51.303Z,19.20
2019-02-14T12:15:20.003Z,18.70
2019-02-14T12:17:48.605Z,18.10
2019-02-14T12:20:17.239Z,19.80
2019-02-14T12:22:47.200Z,19.70
2019-02-14T12:25:18.594Z,18.40
2019-02-14T12:27:47.153Z,18.80
2019-02-14T12:30:15.995Z,18.50
2019-02-14T12:32:44.618Z,17.70
2019-02-14T12:35:13.254Z,17.90
2019-02-14T12:37:41.986Z,18.10
2019-02-14T12:40:12.189Z,18.60
2019-02-14T12:42:40.909Z,18.60
2019-02-14T12:45:20.345Z,18.70
2019-02-14T12:47:42.810Z,18.40
2019-02-14T12:50:11.513Z,17.90
2019-02-14T12:52:40.130Z,18.60
2019-02-14T12:55:08.974Z,18.60
2019-02-14T12:57:37.530Z,18.90
2019-02-14T13:00:12.166Z,17.70
2019-02-14T13:02:40.729Z,17.60
2019-02-14T13:05:09.662Z,17.60
2019-02-14T13:07:38.225Z,17.80
2019-02-14T13:10:09.899Z,17.20
2019-02-14T13:12:38.563Z,15.80
2019-02-14T13:15:10.429Z,15.70
2019-02-14T13:17:39.086Z,15.00
2019-02-14T13:20:08.720Z,14.30
2019-02-14T13:22:37.483Z,13.60
2019-02-14T13:25:09.289Z,13.50
2019-02-14T13:27:37.926Z,13.30
2019-02-14T13:30:09.930Z,13.30
2019-02-14T13:32:38.637Z,16.90
2019-02-14T13:35:07.575Z,13.60
2019-02-14T13:37:36.216Z,13.80
2019-02-14T13:40:06.162Z,14.30
2019-02-14T13:42:34.706Z,14.90
2019-02-14T13:45:03.512Z,14.80
2019-02-14T13:47:32.107Z,14.70
2019-02-14T13:50:00.772Z,14.90
2019-02-14T13:52:29.429Z,16.00
2019-02-14T13:54:57.978Z,15.90
2019-02-14T13:57:26.609Z,16.40
2019-02-14T13:59:55.201Z,16.60
2019-02-14T14:02:23.779Z,16.90
2019-02-14T14:04:52.362Z,17.00
2019-02-14T14:07:20.990Z,17.10
2019-02-14T14:09:49.591Z,17.40
2019-02-14T14:12:18.222Z,17.10
2019-02-14T14:14:46.796Z,17.50
2019-02-14T14:17:15.602Z,17.20
2019-02-14T14:19:44.187Z,17.10
2019-02-14T14:22:12.922Z,16.40
2019-02-14T14:24:41.529Z,15.60
2019-02-14T14:27:10.238Z,15.40
2019-02-14T14:29:38.810Z,15.40
2019-02-14T14:32:07.378Z,15.30
2019-02-14T14:34:35.976Z,15.40
2019-02-14T14:37:04.543Z,14.90
2019-02-14T14:39:33.142Z,14.30
2019-02-14T14:42:02.775Z,14.20
2019-02-14T14:44:33.053Z,13.70
2019-02-14T14:47:01.657Z,13.70
2019-02-14T14:49:30.212Z,13.30
2019-02-14T14:51:58.886Z,13.20
2019-02-14T14:54:27.448Z,13.10
2019-02-14T14:56:56.014Z,12.80
2019-02-14T14:59:24.681Z,13.00
2019-02-14T15:01:53.333Z,13.20
2019-02-14T15:04:22.000Z,13.30
2019-02-14T15:06:50.574Z,13.30
2019-02-14T15:09:19.208Z,13.20
2019-02-14T15:11:47.836Z,13.30
2019-02-14T15:14:16.382Z,13.30
2019-02-14T15:16:44.975Z,13.10
2019-02-14T15:19:13.533Z,13.00
2019-02-14T15:21:42.128Z,12.90
2019-02-14T15:24:10.695Z,12.70
2019-02-14T15:26:39.260Z,12.60
2019-02-14T15:29:07.858Z,12.30
2019-02-14T15:31:36.421Z,12.30
2019-02-14T15:34:05.005Z,11.90
2019-02-14T15:36:33.563Z,11.60
2019-02-14T15:39:02.521Z,11.50
2019-02-14T15:41:31.086Z,11.20
2019-02-14T15:43:59.737Z,10.90
2019-02-14T15:46:28.396Z,10.70
2019-02-14T15:48:57.042Z,10.50
2019-02-14T15:51:25.726Z,10.30
2019-02-14T15:53:54.290Z,10.20
2019-02-14T15:56:23.004Z,10.00
2019-02-14T15:58:52.419Z,9.70
2019-02-14T16:01:21.919Z,9.50
2019-02-14T16:03:50.741Z,9.30
2019-02-14T16:06:19.365Z,9.10
2019-02-14T16:08:48.903Z,8.90
2019-02-14T16:11:17.639Z,8.70
2019-02-14T16:13:46.188Z,8.50
2019-02-14T16:16:14.774Z,8.40
2019-02-14T16:18:44.502Z,8.30
2019-02-14T16:21:13.829Z,8.10
2019-02-14T16:23:42.458Z,8.00
2019-02-14T16:26:11.089Z,7.90
2019-02-14T16:28:39.904Z,7.70
2019-02-14T16:31:08.558Z,7.60
2019-02-14T16:33:37.141Z,7.40
2019-02-14T16:36:05.839Z,7.20
2019-02-14T16:38:35.628Z,7.10
2019-02-14T16:41:04.774Z,6.90
2019-02-14T16:43:33.361Z,6.80
2019-02-14T16:46:01.940Z,6.60
2019-02-14T16:48:30.491Z,6.50
2019-02-14T16:50:59.167Z,6.40
2019-02-14T16:53:27.714Z,6.30
2019-02-14T16:56:02.158Z,6.10
2019-02-14T16:58:26.759Z,6.00
2019-02-14T17:00:55.301Z,5.90
2019-02-14T17:03:23.925Z,5.80
2019-02-14T17:05:52.533Z,5.70
2019-02-14T17:08:21.096Z,5.60
2019-02-14T17:10:49.713Z,5.40
2019-02-14T17:13:18.370Z,5.30
2019-02-14T17:15:47.016Z,5.20
2019-02-14T17:18:15.597Z,5.00
2019-02-14T17:20:44.158Z,5.00
2019-02-14T17:23:12.807Z,4.80
2019-02-14T17:25:41.442Z,4.70
2019-02-14T17:28:10.064Z,4.70
2019-02-14T17:30:38.763Z,4.70
2019-02-14T17:33:07.387Z,4.60
2019-02-14T17:35:35.971Z,4.60
2019-02-14T17:38:04.597Z,4.50
2019-02-14T17:40:33.190Z,4.50
2019-02-14T17:43:01.826Z,4.40
2019-02-14T17:45:30.398Z,4.40
2019-02-14T17:47:58.985Z,4.40
2019-02-14T17:50:27.539Z,4.30
2019-02-14T17:52:56.194Z,4.30
2019-02-14T17:55:24.822Z,4.30
2019-02-14T17:57:53.973Z,4.20
2019-02-14T18:00:22.550Z,4.20
2019-02-14T18:02:51.175Z,4.10
2019-02-14T18:05:19.839Z,4.10
2019-02-14T18:07:48.413Z,4.00
2019-02-14T18:10:17.150Z,3.90
2019-02-14T18:12:45.731Z,3.90
2019-02-14T18:15:15.242Z,3.80
2019-02-14T18:17:43.797Z,3.80
2019-02-14T18:20:12.422Z,3.70
2019-02-14T18:22:41.079Z,3.80
2019-02-14T18:25:12.910Z,3.80
2019-02-14T18:27:41.646Z,3.70
2019-02-14T18:30:13.546Z,3.60
2019-02-14T18:32:42.218Z,3.60
2019-02-14T18:35:12.107Z,3.70
2019-02-14T18:37:40.776Z,3.60
2019-02-14T18:40:10.778Z,3.50
2019-02-14T18:42:47.482Z,3.40
2019-02-14T18:45:16.181Z,3.40
2019-02-14T18:47:44.752Z,3.40
2019-02-14T18:50:14.355Z,3.30
2019-02-14T18:52:43.041Z,3.20
2019-02-14T18:55:12.078Z,3.20
2019-02-14T18:57:40.794Z,3.20
2019-02-14T19:00:14.801Z,3.20
2019-02-14T19:02:43.362Z,3.10
2019-02-14T19:05:12.354Z,3.10
2019-02-14T19:07:41.309Z,3.10
2019-02-14T19:10:14.810Z,3.00
2019-02-14T19:12:43.522Z,3.10
2019-02-14T19:15:15.038Z,3.00
2019-02-14T19:17:43.730Z,3.00
2019-02-14T19:20:13.421Z,2.90
2019-02-14T19:22:42.420Z,2.90
2019-02-14T19:25:11.335Z,2.80
2019-02-14T19:27:39.968Z,2.80
2019-02-14T19:30:10.862Z,2.80
2019-02-14T19:32:39.522Z,2.80
2019-02-14T19:35:09.621Z,2.80
2019-02-14T19:37:38.286Z,2.80
2019-02-14T19:40:08.481Z,2.80
2019-02-14T19:42:37.076Z,2.80
2019-02-14T19:45:08.945Z,2.80
2019-02-14T19:47:37.523Z,2.80
2019-02-14T19:50:11.757Z,2.80
2019-02-14T19:52:40.410Z,2.90
2019-02-14T19:55:10.026Z,2.90
2019-02-14T19:57:38.654Z,3.20
2019-02-14T20:00:12.712Z,3.20
2019-02-14T20:02:41.309Z,3.10
2019-02-14T20:05:10.414Z,3.10
2019-02-14T20:07:39.020Z,3.20
2019-02-14T20:10:13.207Z,3.10
2019-02-14T20:12:41.857Z,3.00
2019-02-14T20:15:15.832Z,2.90
2019-02-14T20:17:44.637Z,2.90
2019-02-14T20:20:13.337Z,2.90
2019-02-14T20:22:41.969Z,2.90
2019-02-14T20:25:25.512Z,2.90
2019-02-14T20:27:54.270Z,2.80
2019-02-14T20:30:22.888Z,2.80
2019-02-14T20:32:51.518Z,2.80
2019-02-14T20:35:20.191Z,2.80
2019-02-14T20:37:48.750Z,2.80
2019-02-14T20:40:17.428Z,2.80
2019-02-14T20:42:45.991Z,2.70
2019-02-14T20:45:15.270Z,2.70
2019-02-14T20:47:43.989Z,2.70
2019-02-14T20:50:13.878Z,2.70
2019-02-14T20:52:42.726Z,2.70
2019-02-14T20:55:23.411Z,2.70
2019-02-14T20:57:52.143Z,2.60
2019-02-14T21:00:34.730Z,2.60
2019-02-14T21:03:03.400Z,2.50
2019-02-14T21:05:32.327Z,2.40
2019-02-14T21:08:01.155Z,2.50
2019-02-14T21:10:29.871Z,2.50
2019-02-14T21:12:58.500Z,2.50
2019-02-14T21:15:27.167Z,2.40
2019-02-14T21:17:55.786Z,2.50
2019-02-14T21:20:24.486Z,2.40
2019-02-14T21:22:53.074Z,2.40
2019-02-14T21:25:23.345Z,2.40
2019-02-14T21:27:52.094Z,2.30
2019-02-14T21:30:21.090Z,2.20
2019-02-14T21:32:49.805Z,2.20
2019-02-14T21:35:18.455Z,2.20
2019-02-14T21:37:47.321Z,2.10
2019-02-14T21:40:20.082Z,2.10
2019-02-14T21:42:49.071Z,2.00
2019-02-14T21:45:18.247Z,2.00
2019-02-14T21:47:46.953Z,1.90
2019-02-14T21:50:16.132Z,2.00
2019-02-14T21:52:44.811Z,1.90
2019-02-14T21:55:14.408Z,1.80
2019-02-14T21:57:43.153Z,1.80
2019-02-14T22:00:17.567Z,1.90
2019-02-14T22:02:46.477Z,2.10
2019-02-14T22:05:15.349Z,2.20
2019-02-14T22:07:43.990Z,2.10
2019-02-14T22:10:13.655Z,2.00
2019-02-14T22:12:43.586Z,2.00
2019-02-14T22:15:15.491Z,2.00
2019-02-14T22:17:44.540Z,1.90
2019-02-14T22:20:13.330Z,1.90
2019-02-14T22:22:41.894Z,1.80
2019-02-14T22:25:11.330Z,1.70
2019-02-14T22:27:40.662Z,1.70
2019-02-14T22:30:18.943Z,1.70
2019-02-14T22:32:47.660Z,1.60
2019-02-14T22:35:16.362Z,1.70
2019-02-14T22:37:45.011Z,1.60
2019-02-14T22:40:14.474Z,1.50
2019-02-14T22:42:46.969Z,1.50
2019-02-14T22:45:14.526Z,1.40
2019-02-14T22:47:44.594Z,1.40
2019-02-14T22:50:13.594Z,1.40
2019-02-14T22:52:42.231Z,1.30
2019-02-14T22:55:12.257Z,1.30
2019-02-14T22:57:41.267Z,1.30
2019-02-14T23:00:13.025Z,1.40
2019-02-14T23:02:41.726Z,1.50
2019-02-14T23:05:11.121Z,1.60
2019-02-14T23:07:39.938Z,1.70
2019-02-14T23:10:08.663Z,1.70
2019-02-14T23:12:37.394Z,1.60
2019-02-14T23:15:07.602Z,1.60
2019-02-14T23:17:36.264Z,1.60
2019-02-14T23:20:06.457Z,1.50
2019-02-14T23:22:35.029Z,1.40
2019-02-14T23:25:04.257Z,1.40
2019-02-14T23:27:32.953Z,1.40
2019-02-14T23:30:01.617Z,1.30
2019-02-14T23:32:30.189Z,1.20
2019-02-14T23:34:58.863Z,1.30
2019-02-14T23:37:27.413Z,1.10
2019-02-14T23:39:56.488Z,1.10
2019-02-14T23:42:25.222Z,0.90
2019-02-14T23:44:53.854Z,0.90
2019-02-14T23:47:22.810Z,0.80
2019-02-14T23:49:51.721Z,0.80
2019-02-14T23:52:21.746Z,0.70
2019-02-14T23:54:50.510Z,0.50
2019-02-14T23:57:19.226Z,0.50
2019-02-14T23:59:48.029Z,0.40
